createdAt,value
2022-08-17T00:02:09.867Z,97991.44
2022-08-17T00:04:51.193Z,97983.00
2022-08-17T00:07:17.623Z,97978.47
2022-08-17T00:09:44.147Z,97966.94
2022-08-17T00:12:44.420Z,97972.94
2022-08-17T00:14:57.305Z,97976.44
2022-08-17T00:17:23.951Z,97975.19
2022-08-17T00:19:50.969Z,97973.16
2022-08-17T00:22:33.912Z,97965.31
2022-08-17T00:25:05.279Z,97966.19
2022-08-17T00:27:31.730Z,97969.88
2022-08-17T00:29:58.119Z,97977.03
2022-08-17T00:33:12.481Z,97967.59
2022-08-17T00:35:15.216Z,97964.50
2022-08-17T00:37:42.081Z,97965.97
2022-08-17T00:40:11.563Z,97976.84
2022-08-17T00:42:38.583Z,97967.78
2022-08-17T00:45:08.270Z,97954.22
2022-08-17T00:47:36.220Z,97937.41
2022-08-17T00:50:05.145Z,97925.88
2022-08-17T00:52:37.322Z,97916.00
2022-08-17T00:55:05.179Z,97907.41
2022-08-17T00:57:39.311Z,97890.16
2022-08-17T01:00:12.256Z,97884.38
2022-08-17T01:02:43.809Z,97878.63
2022-08-17T01:05:15.243Z,97875.34
2022-08-17T01:07:42.924Z,97876.16
2022-08-17T01:10:59.824Z,97893.81
2022-08-17T01:13:02.661Z,97897.94
2022-08-17T01:15:33.814Z,97891.38
2022-08-17T01:18:00.579Z,97888.09
2022-08-17T01:20:27.342Z,97883.34
2022-08-17T01:22:54.192Z,97893.22
2022-08-17T01:25:21.520Z,97889.72
2022-08-17T01:27:49.120Z,97881.53
2022-08-17T01:30:56.510Z,97881.09
2022-08-17T01:33:04.320Z,97865.47
2022-08-17T01:35:31.472Z,97873.69
2022-08-17T01:37:57.891Z,97863.44
2022-08-17T01:40:36.315Z,97853.19
2022-08-17T01:43:25.280Z,97852.13
2022-08-17T01:46:02.385Z,97846.59
2022-08-17T01:48:35.690Z,97849.66
2022-08-17T01:51:02.866Z,97846.19
2022-08-17T01:53:38.143Z,97847.03
2022-08-17T01:56:14.495Z,97848.03
2022-08-17T01:58:43.254Z,97851.13
2022-08-17T02:01:11.066Z,97847.59
2022-08-17T02:03:38.641Z,97849.03
2022-08-17T02:06:06.397Z,97848.00
2022-08-17T02:09:03.111Z,97841.03
2022-08-17T02:11:30.982Z,97818.00
2022-08-17T02:14:03.092Z,97806.94
2022-08-17T02:16:37.872Z,97813.72
2022-08-17T02:19:12.451Z,97805.28
2022-08-17T02:21:41.252Z,97805.31
2022-08-17T02:24:11.720Z,97807.34
2022-08-17T02:26:38.426Z,97797.06
2022-08-17T02:29:05.343Z,97790.72
2022-08-17T02:31:32.023Z,97790.09
2022-08-17T02:34:03.389Z,97786.19
2022-08-17T02:36:31.255Z,97775.50
2022-08-17T02:38:58.590Z,97772.84
2022-08-17T02:41:25.117Z,97777.78
2022-08-17T02:43:51.595Z,97787.84
2022-08-17T02:46:19.519Z,97788.66
2022-08-17T02:48:46.078Z,97782.06
2022-08-17T02:51:12.535Z,97766.47
2022-08-17T02:53:38.963Z,97768.34
2022-08-17T02:56:05.622Z,97781.03
2022-08-17T02:58:35.243Z,97782.91
2022-08-17T03:01:07.005Z,97767.91
2022-08-17T03:03:35.200Z,97779.19
2022-08-17T03:06:02.059Z,97787.03
2022-08-17T03:08:29.070Z,97780.44
2022-08-17T03:10:56.043Z,97780.84
2022-08-17T03:13:22.647Z,97782.91
2022-08-17T03:15:49.356Z,97780.66
2022-08-17T03:18:25.459Z,97789.25
2022-08-17T03:20:57.879Z,97774.88
2022-08-17T03:23:26.136Z,97767.09
2022-08-17T03:25:54.471Z,97769.34
2022-08-17T03:28:21.839Z,97768.94
2022-08-17T03:30:48.876Z,97770.81
2022-08-17T03:33:16.194Z,97761.56
2022-08-17T03:35:43.423Z,97760.34
2022-08-17T03:38:12.190Z,97769.13
2022-08-17T03:40:56.970Z,97763.59
2022-08-17T03:43:29.064Z,97762.75
2022-08-17T03:46:28.293Z,97761.50
2022-08-17T03:49:19.659Z,97746.72
2022-08-17T03:52:04.558Z,97737.66
2022-08-17T03:54:49.664Z,97729.09
2022-08-17T03:57:16.618Z,97731.50
2022-08-17T03:59:45.127Z,97719.78
2022-08-17T04:02:17.517Z,97711.81
2022-08-17T04:04:43.952Z,97691.28
2022-08-17T04:07:10.793Z,97719.00
2022-08-17T04:09:37.266Z,97724.78
2022-08-17T04:12:05.270Z,97729.47
2022-08-17T04:14:36.686Z,97729.09
2022-08-17T04:17:20.071Z,97733.16
2022-08-17T04:19:46.606Z,97729.09
2022-08-17T04:22:33.005Z,97734.66
2022-08-17T04:25:00.143Z,97733.97
2022-08-17T04:27:27.206Z,97734.78
2022-08-17T04:29:55.656Z,97740.13
2022-08-17T04:32:59.307Z,97746.72
2022-08-17T04:35:09.997Z,97753.81
2022-08-17T04:37:36.435Z,97758.19
2022-08-17T04:40:22.924Z,97761.44
2022-08-17T04:43:05.575Z,97764.75
2022-08-17T04:45:32.720Z,97766.03
2022-08-17T04:48:00.278Z,97770.94
2022-08-17T04:50:27.086Z,97772.78
2022-08-17T04:52:53.526Z,97783.91
2022-08-17T04:55:20.102Z,97797.44
2022-08-17T04:57:46.514Z,97797.03
2022-08-17T05:00:13.360Z,97810.00
2022-08-17T05:02:50.048Z,97806.47
2022-08-17T05:05:21.274Z,97803.19
2022-08-17T05:07:48.176Z,97806.72
2022-08-17T05:10:14.656Z,97805.44
2022-08-17T05:12:41.061Z,97810.81
2022-08-17T05:15:12.872Z,97807.53
2022-08-17T05:17:39.262Z,97819.44
2022-08-17T05:20:06.224Z,97811.84
2022-08-17T05:22:32.631Z,97822.34
2022-08-17T05:24:59.102Z,97830.97
2022-08-17T05:27:29.295Z,97842.03
2022-08-17T05:30:02.349Z,97836.09
2022-08-17T05:32:38.257Z,97842.72
2022-08-17T05:35:07.223Z,97860.13
2022-08-17T05:37:33.860Z,97864.66
2022-08-17T05:40:00.388Z,97877.19
2022-08-17T05:42:27.124Z,97873.28
2022-08-17T05:44:57.656Z,97899.97
2022-08-17T05:47:26.151Z,97921.91
2022-08-17T05:49:53.854Z,97940.63
2022-08-17T05:52:49.511Z,97949.22
2022-08-17T05:55:29.536Z,97980.06
2022-08-17T05:58:18.164Z,97993.16
2022-08-17T06:00:59.630Z,98020.19
2022-08-17T06:03:42.996Z,98039.66
2022-08-17T06:06:15.517Z,98066.53
2022-08-17T06:08:59.584Z,98087.75
2022-08-17T06:11:43.580Z,98120.38
2022-08-17T06:14:16.073Z,98152.91
2022-08-17T06:16:46.272Z,98220.28
2022-08-17T06:19:33.692Z,98224.22
2022-08-17T06:22:02.730Z,98252.66
2022-08-17T06:24:29.084Z,98250.91
2022-08-17T06:27:01.676Z,98256.41
2022-08-17T06:29:30.919Z,98286.31
2022-08-17T06:31:57.644Z,98284.38
2022-08-17T06:34:24.302Z,98316.91
2022-08-17T06:37:09.976Z,98294.81
2022-08-17T06:39:54.240Z,98335.53
2022-08-17T06:43:04.031Z,98347.22
2022-08-17T06:45:49.554Z,98332.44
2022-08-17T06:48:33.540Z,98338.03
2022-08-17T06:51:10.560Z,98364.91
2022-08-17T06:53:48.298Z,98357.91
2022-08-17T06:56:27.016Z,98399.88
2022-08-17T06:59:18.634Z,98392.34
2022-08-17T07:01:49.272Z,98383.38
2022-08-17T07:04:18.270Z,98413.19
2022-08-17T07:06:59.482Z,98426.63
2022-08-17T07:09:25.972Z,98456.97
2022-08-17T07:11:57.686Z,98457.88
2022-08-17T07:14:30.320Z,98471.59
2022-08-17T07:16:58.501Z,98475.00
2022-08-17T07:19:31.638Z,98474.63
2022-08-17T07:22:27.965Z,98473.44
2022-08-17T07:25:08.082Z,98463.66
2022-08-17T07:27:51.189Z,98458.88
2022-08-17T07:30:23.755Z,98495.19
2022-08-17T07:32:53.835Z,98498.09
2022-08-17T07:35:37.690Z,98478.91
2022-08-17T07:38:24.708Z,98507.81
2022-08-17T07:41:01.870Z,98526.56
2022-08-17T07:43:52.612Z,98524.38
2022-08-17T07:46:40.751Z,98523.47
2022-08-17T07:49:10.385Z,98539.66
2022-08-17T07:51:45.500Z,98548.22
2022-08-17T07:54:15.101Z,98558.66
2022-08-17T07:57:03.471Z,98542.16
2022-08-17T07:59:39.141Z,98522.81
2022-08-17T08:02:31.117Z,98530.97
2022-08-17T08:05:12.846Z,98529.06
2022-08-17T08:07:51.102Z,98541.72
2022-08-17T08:10:32.858Z,98546.66
2022-08-17T08:13:10.623Z,98537.25
2022-08-17T08:15:53.755Z,98536.56
2022-08-17T08:18:53.313Z,98545.97
2022-08-17T08:21:29.397Z,98550.38
2022-08-17T08:24:09.781Z,98543.69
2022-08-17T08:26:58.064Z,98548.13
2022-08-17T08:29:29.353Z,98544.59
2022-08-17T08:32:07.915Z,98558.44
2022-08-17T08:35:09.538Z,98546.81
2022-08-17T08:37:52.242Z,98544.19
2022-08-17T08:40:43.195Z,98550.53
2022-08-17T08:43:47.380Z,98552.31
2022-08-17T08:46:35.372Z,98557.50
2022-08-17T08:50:02.800Z,98551.88
2022-08-17T08:52:53.650Z,98563.19
2022-08-17T08:55:41.031Z,98550.59
2022-08-17T08:58:31.616Z,98552.53
2022-08-17T09:01:20.946Z,98553.13
2022-08-17T09:04:21.385Z,98550.78
2022-08-17T09:07:15.092Z,98547.66
2022-08-17T09:09:59.352Z,98552.50
2022-08-17T09:12:43.984Z,98548.25
2022-08-17T09:15:18.221Z,98551.69
2022-08-17T09:19:00.795Z,98540.22
2022-08-17T09:21:28.649Z,98548.63
2022-08-17T09:24:16.070Z,98528.88
2022-08-17T09:27:11.411Z,98535.66
2022-08-17T09:29:44.403Z,98520.97
2022-08-17T09:32:52.022Z,98526.38
2022-08-17T09:35:25.303Z,98532.59
2022-08-17T09:38:29.208Z,98528.81
2022-08-17T09:41:07.459Z,98521.34
2022-08-17T09:43:49.110Z,98523.19
2022-08-17T09:46:25.015Z,98516.63
2022-08-17T09:48:57.453Z,98512.69
2022-08-17T09:51:40.103Z,98484.31
2022-08-17T09:54:38.148Z,98501.66
2022-08-17T09:57:32.194Z,98488.06
2022-08-17T10:00:28.452Z,98479.78
2022-08-17T10:03:22.306Z,98492.31
2022-08-17T10:06:13.313Z,98486.97
2022-08-17T10:08:49.545Z,98506.00
2022-08-17T10:11:19.259Z,98496.94
2022-08-17T10:13:55.972Z,98494.69
2022-08-17T10:16:40.781Z,98490.09
2022-08-17T10:19:18.597Z,98481.06
2022-08-17T10:22:32.586Z,98493.25
2022-08-17T10:25:23.154Z,98492.31
2022-08-17T10:27:59.737Z,98506.25
2022-08-17T10:30:31.511Z,98499.84
2022-08-17T10:33:02.757Z,98498.66
2022-08-17T10:35:29.200Z,98490.53
2022-08-17T10:38:12.042Z,98491.09
2022-08-17T10:40:51.706Z,98486.31
2022-08-17T10:43:27.252Z,98485.63
2022-08-17T10:46:30.496Z,98481.28
2022-08-17T10:49:18.647Z,98487.09
2022-08-17T10:51:47.958Z,98468.44
2022-08-17T10:54:35.165Z,98469.88
2022-08-17T10:57:02.513Z,98474.09
2022-08-17T10:59:35.003Z,98474.78
2022-08-17T11:02:04.466Z,98463.22
2022-08-17T11:05:18.030Z,98472.31
2022-08-17T11:08:08.016Z,98484.19
2022-08-17T11:11:07.023Z,98479.25
2022-08-17T11:13:48.701Z,98484.91
2022-08-17T11:16:52.394Z,98488.19
2022-08-17T11:19:28.181Z,98482.66
2022-08-17T11:22:16.410Z,98474.63
2022-08-17T11:24:47.915Z,98470.69
2022-08-17T11:27:27.304Z,98470.94
2022-08-17T11:30:04.848Z,98461.78
2022-08-17T11:32:47.765Z,98462.78
2022-08-17T11:35:22.249Z,98471.91
2022-08-17T11:38:15.919Z,98468.72
2022-08-17T11:40:59.696Z,98467.16
2022-08-17T11:43:59.243Z,98467.09
2022-08-17T11:47:00.547Z,98463.44
2022-08-17T11:50:17.079Z,98470.16
2022-08-17T11:52:46.100Z,98472.34
2022-08-17T11:55:38.520Z,98471.75
2022-08-17T11:58:29.769Z,98477.25
2022-08-17T12:00:59.293Z,98474.31
2022-08-17T12:03:31.987Z,98472.28
2022-08-17T12:06:30.662Z,98478.69
2022-08-17T12:09:09.330Z,98454.41
2022-08-17T12:12:11.787Z,98478.47
2022-08-17T12:17:41.550Z,98459.97
2022-08-17T12:20:24.357Z,98468.94
2022-08-17T12:22:57.782Z,98470.34
2022-08-17T12:25:35.906Z,98478.72
2022-08-17T12:28:06.688Z,98480.75
2022-08-17T12:30:34.967Z,98488.56
2022-08-17T12:33:01.563Z,98482.31
2022-08-17T12:35:36.755Z,98478.22
2022-08-17T12:38:26.918Z,98482.34
2022-08-17T12:40:58.334Z,98478.38
2022-08-17T12:43:31.194Z,98483.16
2022-08-17T12:46:01.251Z,98485.78
2022-08-17T12:48:55.050Z,98488.41
2022-08-17T12:51:27.580Z,98487.47
2022-08-17T12:53:55.460Z,98484.81
2022-08-17T12:56:22.220Z,98485.75
2022-08-17T12:58:54.181Z,98488.56
2022-08-17T13:01:23.345Z,98494.09
2022-08-17T13:03:55.106Z,98499.31
2022-08-17T13:06:34.992Z,98499.31
2022-08-17T13:09:24.175Z,98498.53
2022-08-17T13:12:02.701Z,98495.31
2022-08-17T13:14:33.363Z,98509.06
2022-08-17T13:17:02.257Z,98518.69
2022-08-17T13:19:40.939Z,98522.66
2022-08-17T13:22:11.600Z,98525.75
2022-08-17T13:24:38.743Z,98523.56
2022-08-17T13:27:09.605Z,98515.66
2022-08-17T13:29:51.532Z,98506.97
2022-08-17T13:32:44.023Z,98515.34
2022-08-17T13:35:38.979Z,98518.13
2022-08-17T13:38:16.315Z,98516.78
2022-08-17T13:40:50.702Z,98529.06
2022-08-17T13:43:48.469Z,98520.06
2022-08-17T13:46:20.974Z,98524.97
2022-08-17T13:49:10.293Z,98530.16
2022-08-17T13:51:43.887Z,98526.06
2022-08-17T13:54:33.402Z,98534.25
2022-08-17T13:57:12.135Z,98524.97
2022-08-17T13:59:54.945Z,98519.00
2022-08-17T14:02:28.047Z,98523.34
2022-08-17T14:04:55.808Z,98521.94
2022-08-17T14:07:28.607Z,98521.13
2022-08-17T14:10:02.267Z,98520.03
2022-08-17T14:12:31.831Z,98527.13
2022-08-17T14:14:59.436Z,98531.25
2022-08-17T14:17:28.891Z,98529.63
2022-08-17T14:19:55.439Z,98529.91
2022-08-17T14:22:28.521Z,98518.97
2022-08-17T14:24:56.841Z,98521.72
2022-08-17T14:27:25.524Z,98531.53
2022-08-17T14:29:53.211Z,98518.44
2022-08-17T14:32:26.761Z,98511.91
2022-08-17T14:34:56.584Z,98508.03
2022-08-17T14:37:26.286Z,98514.88
2022-08-17T14:39:57.424Z,98523.91
2022-08-17T14:42:26.245Z,98509.16
2022-08-17T14:44:54.087Z,98512.13
2022-08-17T14:47:20.558Z,98512.94
2022-08-17T14:49:51.054Z,98524.38
2022-08-17T14:52:23.124Z,98541.00
2022-08-17T14:54:51.355Z,98535.81
2022-08-17T14:57:33.959Z,98542.28
2022-08-17T15:00:02.100Z,98535.63
2022-08-17T15:02:30.507Z,98528.59
2022-08-17T15:05:05.254Z,98532.06
2022-08-17T15:07:31.932Z,98523.06
2022-08-17T15:10:01.447Z,98520.06
2022-08-17T15:12:33.190Z,98508.94
2022-08-17T15:15:02.079Z,98494.47
2022-08-17T15:17:44.353Z,98483.97
2022-08-17T15:20:18.242Z,98474.78
2022-08-17T15:22:46.810Z,98465.53
2022-08-17T15:25:13.804Z,98472.91
2022-08-17T15:27:40.481Z,98473.16
2022-08-17T15:30:08.536Z,98465.53
2022-08-17T15:32:39.222Z,98449.19
2022-08-17T15:35:08.888Z,98454.38
2022-08-17T15:37:36.362Z,98453.81
2022-08-17T15:40:04.094Z,98463.94
2022-08-17T15:42:30.581Z,98468.84
2022-08-17T15:44:57.445Z,98471.56
2022-08-17T15:47:24.461Z,98482.88
2022-08-17T15:49:50.925Z,98474.72
2022-08-17T15:52:20.332Z,98473.47
2022-08-17T15:54:58.776Z,98471.56
2022-08-17T15:57:26.191Z,98470.97
2022-08-17T15:59:58.641Z,98468.84
2022-08-17T16:03:46.298Z,98474.28
2022-08-17T16:05:24.956Z,98467.72
2022-08-17T16:07:52.612Z,98463.38
2022-08-17T16:10:19.694Z,98461.75
2022-08-17T16:12:47.977Z,98459.31
2022-08-17T16:15:15.463Z,98448.13
2022-08-17T16:17:42.461Z,98453.56
2022-08-17T16:20:20.357Z,98448.38
2022-08-17T16:22:49.611Z,98455.22
2022-08-17T16:25:23.230Z,98449.75
2022-08-17T16:28:09.927Z,98455.75
2022-08-17T16:30:37.312Z,98445.94
2022-08-17T16:33:05.463Z,98445.41
2022-08-17T16:35:31.894Z,98443.22
2022-08-17T16:37:58.790Z,98447.59
2022-08-17T16:40:27.704Z,98438.31
2022-08-17T16:42:55.232Z,98454.31
2022-08-17T16:45:27.592Z,98446.22
2022-08-17T16:47:54.823Z,98443.50
2022-08-17T16:50:23.210Z,98440.75
2022-08-17T16:52:50.665Z,98453.56
2022-08-17T16:55:19.903Z,98453.03
2022-08-17T16:57:48.564Z,98447.84
2022-08-17T17:00:17.867Z,98447.59
2022-08-17T17:02:47.233Z,98447.03
2022-08-17T17:05:32.504Z,98444.56
2022-08-17T17:08:12.578Z,98439.94
2022-08-17T17:10:44.387Z,98451.88
2022-08-17T17:13:25.099Z,98451.31
2022-08-17T17:15:59.661Z,98433.41
2022-08-17T17:18:47.504Z,98430.63
2022-08-17T17:21:19.819Z,98448.13
2022-08-17T17:24:03.919Z,98431.72
2022-08-17T17:26:53.861Z,98455.66
2022-08-17T17:29:48.483Z,98442.88
2022-08-17T17:32:21.504Z,98451.81
2022-08-17T17:34:53.704Z,98458.38
2022-08-17T17:37:26.138Z,98445.56
2022-08-17T17:39:58.701Z,98451.81
2022-08-17T17:42:31.291Z,98445.28
2022-08-17T17:45:25.924Z,98456.16
2022-08-17T17:47:53.354Z,98459.97
2022-08-17T17:50:26.328Z,98464.84
2022-08-17T17:53:07.542Z,98463.78
2022-08-17T17:56:19.664Z,98465.38
2022-08-17T17:59:32.781Z,98468.38
2022-08-17T18:02:52.140Z,98461.84
2022-08-17T18:05:37.070Z,98461.50
2022-08-17T18:08:32.170Z,98468.56
2022-08-17T18:11:06.424Z,98480.44
2022-08-17T18:13:58.169Z,98473.84
2022-08-17T18:16:27.070Z,98472.91
2022-08-17T18:18:57.741Z,98469.44
2022-08-17T18:21:32.174Z,98466.44
2022-08-17T18:24:00.592Z,98453.91
2022-08-17T18:26:33.200Z,98455.56
2022-08-17T18:29:42.711Z,98452.16
2022-08-17T18:32:38.424Z,98450.94
2022-08-17T18:35:10.846Z,98449.06
2022-08-17T18:37:52.776Z,98453.75
2022-08-17T18:40:19.590Z,98458.38
2022-08-17T18:43:04.389Z,98447.63
2022-08-17T18:45:38.107Z,98441.31
2022-08-17T18:48:06.658Z,98440.91
2022-08-17T18:50:41.399Z,98434.22
2022-08-17T18:53:35.207Z,98424.34
2022-08-17T18:56:27.964Z,98424.28
2022-08-17T18:59:09.805Z,98425.25
2022-08-17T19:01:58.200Z,98434.72
2022-08-17T19:04:28.288Z,98423.72
2022-08-17T19:07:09.506Z,98418.09
2022-08-17T19:09:43.055Z,98421.97
2022-08-17T19:12:27.007Z,98423.91
2022-08-17T19:14:56.931Z,98426.16
2022-08-17T19:17:44.000Z,98431.56
2022-08-17T19:20:22.629Z,98433.31
2022-08-17T19:23:29.302Z,98425.06
2022-08-17T19:26:01.504Z,98418.94
2022-08-17T19:28:48.597Z,98409.06
2022-08-17T19:31:34.915Z,98399.44
2022-08-17T19:34:01.737Z,98409.66
2022-08-17T19:36:50.482Z,98393.69
2022-08-17T19:39:38.588Z,98393.75
2022-08-17T19:42:18.767Z,98393.63
2022-08-17T19:44:54.510Z,98400.28
2022-08-17T19:47:56.026Z,98405.19
2022-08-17T19:50:45.692Z,98407.88
2022-08-17T19:53:54.047Z,98419.34
2022-08-17T19:56:47.492Z,98419.00
2022-08-17T19:59:41.380Z,98404.31
2022-08-17T20:02:45.627Z,98387.97
2022-08-17T20:05:15.146Z,98379.03
2022-08-17T20:07:54.372Z,98377.28
2022-08-17T20:10:34.273Z,98364.50
2022-08-17T20:13:07.610Z,98400.56
2022-08-17T20:15:37.708Z,98388.59
2022-08-17T20:18:10.710Z,98390.31
2022-08-17T20:20:48.768Z,98383.03
2022-08-17T20:23:50.110Z,98376.13
2022-08-17T20:26:37.120Z,98378.97
2022-08-17T20:29:08.321Z,98371.88
2022-08-17T20:31:56.444Z,98364.25
2022-08-17T20:34:33.644Z,98354.66
2022-08-17T20:37:06.156Z,98340.78
2022-08-17T20:39:38.312Z,98318.13
2022-08-17T20:42:27.872Z,98308.59
2022-08-17T20:45:21.148Z,98294.56
2022-08-17T20:48:07.773Z,98299.94
2022-08-17T20:50:46.888Z,98291.78
2022-08-17T20:53:55.856Z,98292.31
2022-08-17T20:56:44.127Z,98293.94
2022-08-17T20:59:25.784Z,98297.56
2022-08-17T21:02:18.067Z,98287.81
2022-08-17T21:05:00.776Z,98278.13
2022-08-17T21:07:50.650Z,98269.16
2022-08-17T21:10:30.262Z,98274.19
2022-08-17T21:13:13.477Z,98272.16
2022-08-17T21:15:48.507Z,98277.16
2022-08-17T21:18:38.801Z,98270.97
2022-08-17T21:21:38.003Z,98263.41
2022-08-17T21:24:25.587Z,98277.91
2022-08-17T21:27:05.945Z,98285.53
2022-08-17T21:29:34.040Z,98299.56
2022-08-17T21:32:06.529Z,98289.50
2022-08-17T21:34:44.934Z,98288.56
2022-08-17T21:37:20.494Z,98282.66
2022-08-17T21:39:52.679Z,98282.31
2022-08-17T21:42:26.592Z,98274.91
2022-08-17T21:44:59.602Z,98279.09
2022-08-17T21:47:29.244Z,98285.25
2022-08-17T21:50:13.267Z,98270.88
2022-08-17T21:52:40.562Z,98289.84
2022-08-17T21:55:07.812Z,98288.03
2022-08-17T21:57:53.023Z,98284.56
2022-08-17T22:00:33.652Z,98277.59
2022-08-17T22:03:03.306Z,98291.19
2022-08-17T22:05:32.832Z,98277.22
2022-08-17T22:08:08.767Z,98258.25
2022-08-17T22:10:44.387Z,98276.00
2022-08-17T22:13:24.637Z,98268.41
2022-08-17T22:16:28.957Z,98262.84
2022-08-17T22:18:58.795Z,98267.38
2022-08-17T22:21:27.228Z,98262.59
2022-08-17T22:24:06.695Z,98276.00
2022-08-17T22:27:01.348Z,98268.56
2022-08-17T22:29:43.655Z,98270.47
2022-08-17T22:32:29.358Z,98252.97
2022-08-17T22:35:34.959Z,98259.56
2022-08-17T22:38:19.630Z,98250.50
2022-08-17T22:40:49.754Z,98256.06
2022-08-17T22:43:21.236Z,98266.59
2022-08-17T22:45:56.036Z,98260.41
2022-08-17T22:48:27.615Z,98265.34
2022-08-17T22:51:12.566Z,98253.41
2022-08-17T22:54:05.743Z,98257.72
2022-08-17T22:56:51.153Z,98252.81
2022-08-17T22:59:43.957Z,98244.75
2022-08-17T23:02:14.761Z,98235.69
2022-08-17T23:04:45.066Z,98251.75
2022-08-17T23:07:11.608Z,98245.59
2022-08-17T23:09:39.368Z,98240.66
2022-08-17T23:12:10.538Z,98251.34
2022-08-17T23:14:42.397Z,98236.94
2022-08-17T23:17:08.928Z,98224.78
2022-08-17T23:19:35.503Z,98220.06
2022-08-17T23:22:04.831Z,98214.09
2022-08-17T23:24:35.753Z,98214.72
2022-08-17T23:27:07.311Z,98198.84
2022-08-17T23:29:34.940Z,98192.06
2022-08-17T23:32:04.732Z,98180.50
2022-08-17T23:34:31.236Z,98169.97
2022-08-17T23:36:57.719Z,98178.03
2022-08-17T23:39:28.573Z,98170.19
2022-08-17T23:42:00.269Z,98163.16
2022-08-17T23:44:27.278Z,98153.50
2022-08-17T23:46:54.479Z,98150.41
2022-08-17T23:49:20.985Z,98139.50
2022-08-17T23:51:48.820Z,98138.25
2022-08-17T23:54:43.750Z,98136.44
2022-08-17T23:57:12.705Z,98143.41
2022-08-17T23:59:39.761Z,98150.84
